createdAt,value
2023-02-17T00:00:35.837Z,10.20
2023-02-17T00:01:35.836Z,10.13
2023-02-17T00:02:35.835Z,10.17
2023-02-17T00:03:43.003Z,10.16
2023-02-17T00:04:35.777Z,10.17
2023-02-17T00:05:35.787Z,10.17
2023-02-17T00:06:35.753Z,10.10
2023-02-17T00:07:35.753Z,10.10
2023-02-17T00:08:35.738Z,10.10
2023-02-17T00:09:35.732Z,10.19
2023-02-17T00:10:35.717Z,10.16
2023-02-17T00:11:35.734Z,10.17
2023-02-17T00:12:35.692Z,10.16
2023-02-17T00:13:35.712Z,10.20
2023-02-17T00:14:35.683Z,10.13
2023-02-17T00:15:35.706Z,10.15
2023-02-17T00:16:35.655Z,10.16
2023-02-17T00:17:35.659Z,10.16
2023-02-17T00:18:35.620Z,10.13
2023-02-17T00:19:35.624Z,10.17
2023-02-17T00:20:35.599Z,10.20
2023-02-17T00:21:35.608Z,10.16
2023-02-17T00:22:35.575Z,10.17
2023-02-17T00:23:35.589Z,10.17
2023-02-17T00:24:35.560Z,10.20
2023-02-17T00:25:35.545Z,10.17
2023-02-17T00:26:35.532Z,10.20
2023-02-17T00:27:35.525Z,10.15
2023-02-17T00:28:35.515Z,10.19
2023-02-17T00:29:35.512Z,10.17
2023-02-17T00:30:35.499Z,10.17
2023-02-17T00:31:35.599Z,10.13
2023-02-17T00:32:35.466Z,10.22
2023-02-17T00:33:35.482Z,10.30
2023-02-17T00:34:35.455Z,10.16
2023-02-17T00:35:35.447Z,10.33
2023-02-17T00:36:35.424Z,10.25
2023-02-17T00:37:35.434Z,10.31
2023-02-17T00:38:35.404Z,10.25
2023-02-17T00:39:35.396Z,10.25
2023-02-17T00:40:35.381Z,10.23
2023-02-17T00:41:35.378Z,10.19
2023-02-17T00:42:35.358Z,10.19
2023-02-17T00:43:35.359Z,10.22
2023-02-17T00:44:35.348Z,10.22
2023-02-17T00:45:35.333Z,10.26
2023-02-17T00:46:35.417Z,10.23
2023-02-17T00:47:35.313Z,10.16
2023-02-17T00:48:35.358Z,10.22
2023-02-17T00:49:35.313Z,10.19
2023-02-17T00:50:35.281Z,10.34
2023-02-17T00:51:35.275Z,10.17
2023-02-17T00:52:35.252Z,10.22
2023-02-17T00:53:35.242Z,10.19
2023-02-17T00:54:35.233Z,10.25
2023-02-17T00:55:35.214Z,10.23
2023-02-17T00:56:35.212Z,10.17
2023-02-17T00:57:35.199Z,10.28
2023-02-17T00:58:35.196Z,10.19
2023-02-17T00:59:35.179Z,10.28
2023-02-17T01:00:35.162Z,10.33
2023-02-17T01:01:35.218Z,10.17
2023-02-17T01:02:35.142Z,10.23
2023-02-17T01:03:35.136Z,10.20
2023-02-17T01:04:35.147Z,10.15
2023-02-17T01:05:35.137Z,10.16
2023-02-17T01:06:35.102Z,10.20
2023-02-17T01:07:35.095Z,10.22
2023-02-17T01:08:35.085Z,10.19
2023-02-17T01:09:35.070Z,10.19
2023-02-17T01:10:35.057Z,10.20
2023-02-17T01:11:35.080Z,10.17
2023-02-17T01:12:35.037Z,10.17
2023-02-17T01:13:35.070Z,10.17
2023-02-17T01:14:35.016Z,10.17
2023-02-17T01:15:35.662Z,10.16
2023-02-17T01:16:34.989Z,10.19
2023-02-17T01:17:34.971Z,10.17
2023-02-17T01:18:34.965Z,10.15
2023-02-17T01:19:34.965Z,10.17
2023-02-17T01:20:34.948Z,10.19
2023-02-17T01:21:35.035Z,10.17
2023-02-17T01:22:34.919Z,10.22
2023-02-17T01:23:34.908Z,10.22
2023-02-17T01:24:34.913Z,10.16
2023-02-17T01:25:34.883Z,10.20
2023-02-17T01:26:34.873Z,10.19
2023-02-17T01:27:34.877Z,10.19
2023-02-17T01:28:34.853Z,10.17
2023-02-17T01:29:34.841Z,10.19
2023-02-17T01:30:34.860Z,10.15
2023-02-17T01:31:34.951Z,10.26
2023-02-17T01:32:34.816Z,10.15
2023-02-17T01:33:34.794Z,10.28
2023-02-17T01:34:34.785Z,10.28
2023-02-17T01:35:34.791Z,10.17
2023-02-17T01:36:34.774Z,10.19
2023-02-17T01:37:34.774Z,10.19
2023-02-17T01:38:34.740Z,10.31
2023-02-17T01:39:34.725Z,10.22
2023-02-17T01:40:34.723Z,10.22
2023-02-17T01:41:34.715Z,10.22
2023-02-17T01:42:34.722Z,10.30
2023-02-17T01:43:34.680Z,10.30
2023-02-17T01:44:34.671Z,10.23
2023-02-17T01:45:34.660Z,10.22
2023-02-17T01:46:34.738Z,10.22
2023-02-17T01:47:34.635Z,10.22
2023-02-17T01:48:34.638Z,10.23
2023-02-17T01:49:34.611Z,10.31
2023-02-17T01:50:34.605Z,10.33
2023-02-17T01:51:34.589Z,10.22
2023-02-17T01:52:34.591Z,10.23
2023-02-17T01:53:34.593Z,10.34
2023-02-17T01:54:34.570Z,10.25
2023-02-17T01:55:34.545Z,10.23
2023-02-17T01:56:34.539Z,10.28
2023-02-17T01:57:34.534Z,10.30
2023-02-17T01:58:34.544Z,10.30
2023-02-17T01:59:34.498Z,10.25
2023-02-17T02:00:34.495Z,10.25
2023-02-17T02:01:34.526Z,10.26
2023-02-17T02:02:34.710Z,10.20
2023-02-17T02:03:34.457Z,10.23
2023-02-17T02:04:34.466Z,10.26
2023-02-17T02:05:36.568Z,10.33
2023-02-17T02:06:34.436Z,10.34
2023-02-17T02:07:34.412Z,10.30
2023-02-17T02:08:34.417Z,10.28
2023-02-17T02:09:34.419Z,10.23
2023-02-17T02:10:34.389Z,10.25
2023-02-17T02:11:34.399Z,10.31
2023-02-17T02:12:34.359Z,10.28
2023-02-17T02:13:34.359Z,10.30
2023-02-17T02:14:34.353Z,10.26
2023-02-17T02:15:34.335Z,10.34
2023-02-17T02:16:34.331Z,10.33
2023-02-17T02:17:34.332Z,10.33
2023-02-17T02:18:34.299Z,10.33
2023-02-17T02:19:34.296Z,10.33
2023-02-17T02:20:34.285Z,10.34
2023-02-17T02:21:34.280Z,10.33
2023-02-17T02:22:34.256Z,10.37
2023-02-17T02:23:34.261Z,10.33
2023-02-17T02:24:34.236Z,10.37
2023-02-17T02:25:34.242Z,10.26
2023-02-17T02:26:34.232Z,10.34
2023-02-17T02:27:34.213Z,10.38
2023-02-17T02:28:34.203Z,10.34
2023-02-17T02:29:34.174Z,10.25
2023-02-17T02:30:34.165Z,10.40
2023-02-17T02:31:34.197Z,10.34
2023-02-17T02:32:34.152Z,10.35
2023-02-17T02:33:34.128Z,10.35
2023-02-17T02:34:34.132Z,10.30
2023-02-17T02:35:34.107Z,10.28
2023-02-17T02:36:34.100Z,10.38
2023-02-17T02:37:34.100Z,10.41
2023-02-17T02:38:34.077Z,10.40
2023-02-17T02:39:34.094Z,10.44
2023-02-17T02:40:34.057Z,10.40
2023-02-17T02:41:34.074Z,10.41
2023-02-17T02:42:34.036Z,10.33
2023-02-17T02:43:34.030Z,10.34
2023-02-17T02:44:34.016Z,10.34
2023-02-17T02:45:34.017Z,10.42
2023-02-17T02:46:33.989Z,10.41
2023-02-17T02:47:33.975Z,10.42
2023-02-17T02:48:33.969Z,10.41
2023-02-17T02:49:33.965Z,10.37
2023-02-17T02:50:33.945Z,10.41
2023-02-17T02:51:33.930Z,10.40
2023-02-17T02:52:33.921Z,10.38
2023-02-17T02:53:33.917Z,10.44
2023-02-17T02:54:33.918Z,10.42
2023-02-17T02:55:33.885Z,10.41
2023-02-17T02:56:33.880Z,10.40
2023-02-17T02:57:33.883Z,10.49
2023-02-17T02:58:33.858Z,10.37
2023-02-17T02:59:33.847Z,10.38
2023-02-17T03:00:33.839Z,10.41
2023-02-17T03:01:33.832Z,10.49
2023-02-17T03:02:33.811Z,10.46
2023-02-17T03:03:33.811Z,10.40
2023-02-17T03:04:33.794Z,10.59
2023-02-17T03:05:33.809Z,10.49
2023-02-17T03:06:33.767Z,10.49
2023-02-17T03:07:33.760Z,10.51
2023-02-17T03:08:33.745Z,10.51
2023-02-17T03:09:33.746Z,10.51
2023-02-17T03:10:33.722Z,10.51
2023-02-17T03:11:33.713Z,10.46
2023-02-17T03:12:33.701Z,10.53
2023-02-17T03:13:33.709Z,10.56
2023-02-17T03:14:33.686Z,10.59
2023-02-17T03:15:33.689Z,10.60
2023-02-17T03:16:33.775Z,10.54
2023-02-17T03:17:33.676Z,10.57
2023-02-17T03:18:33.632Z,10.61
2023-02-17T03:19:33.642Z,10.61
2023-02-17T03:20:33.615Z,10.67
2023-02-17T03:21:33.610Z,10.60
2023-02-17T03:22:33.589Z,10.67
2023-02-17T03:23:33.575Z,10.59
2023-02-17T03:24:33.573Z,10.67
2023-02-17T03:25:33.553Z,10.67
2023-02-17T03:26:33.552Z,10.64
2023-02-17T03:27:33.547Z,10.59
2023-02-17T03:28:33.529Z,10.59
2023-02-17T03:29:33.529Z,10.56
2023-02-17T03:30:33.516Z,10.61
2023-02-17T03:31:33.596Z,10.67
2023-02-17T03:32:33.478Z,10.69
2023-02-17T03:33:33.476Z,10.61
2023-02-17T03:34:33.463Z,10.67
2023-02-17T03:35:33.452Z,10.61
2023-02-17T03:36:33.439Z,10.59
2023-02-17T03:37:33.419Z,10.61
2023-02-17T03:38:33.413Z,10.61
2023-02-17T03:39:33.406Z,10.67
2023-02-17T03:40:33.403Z,10.61
2023-02-17T03:41:33.389Z,10.59
2023-02-17T03:42:33.374Z,10.61
2023-02-17T03:43:33.353Z,10.63
2023-02-17T03:44:33.347Z,10.67
2023-02-17T03:45:33.414Z,10.68
2023-02-17T03:46:33.323Z,10.67
2023-02-17T03:47:33.319Z,10.61
2023-02-17T03:48:33.303Z,10.69
2023-02-17T03:49:33.286Z,10.61
2023-02-17T03:50:33.287Z,10.68
2023-02-17T03:51:33.268Z,10.68
2023-02-17T03:52:33.258Z,10.63
2023-02-17T03:53:33.251Z,10.61
2023-02-17T03:54:33.241Z,10.68
2023-02-17T03:55:33.219Z,10.61
2023-02-17T03:56:33.225Z,10.61
2023-02-17T03:57:33.196Z,10.75
2023-02-17T03:58:33.195Z,10.76
2023-02-17T03:59:33.173Z,10.67
2023-02-17T04:00:33.172Z,10.69
2023-02-17T04:01:33.188Z,10.67
2023-02-17T04:02:33.153Z,10.63
2023-02-17T04:03:33.138Z,10.61
2023-02-17T04:04:33.123Z,10.61
2023-02-17T04:05:33.112Z,10.74
2023-02-17T04:06:33.102Z,10.64
2023-02-17T04:07:33.087Z,10.72
2023-02-17T04:08:33.092Z,10.63
2023-02-17T04:09:33.062Z,10.64
2023-02-17T04:10:33.055Z,10.61
2023-02-17T04:11:33.059Z,10.61
2023-02-17T04:12:33.052Z,10.59
2023-02-17T04:13:33.014Z,10.72
2023-02-17T04:14:33.016Z,10.67
2023-02-17T04:15:33.013Z,10.63
2023-02-17T04:16:32.986Z,10.64
2023-02-17T04:17:33.001Z,10.74
2023-02-17T04:18:32.974Z,10.61
2023-02-17T04:19:32.954Z,10.72
2023-02-17T04:20:32.952Z,10.78
2023-02-17T04:21:32.926Z,10.64
2023-02-17T04:22:32.941Z,10.63
2023-02-17T04:23:32.906Z,10.63
2023-02-17T04:24:32.901Z,10.72
2023-02-17T04:25:32.883Z,10.74
2023-02-17T04:26:32.884Z,10.63
2023-02-17T04:27:32.862Z,10.64
2023-02-17T04:28:32.859Z,10.75
2023-02-17T04:29:32.856Z,10.76
2023-02-17T04:30:32.902Z,10.67
2023-02-17T04:31:32.968Z,10.76
2023-02-17T04:32:32.828Z,10.71
2023-02-17T04:33:32.831Z,10.76
2023-02-17T04:34:32.801Z,10.76
2023-02-17T04:35:32.781Z,10.67
2023-02-17T04:36:32.769Z,10.64
2023-02-17T04:37:32.759Z,10.60
2023-02-17T04:38:32.743Z,10.75
2023-02-17T04:39:32.731Z,10.72
2023-02-17T04:40:32.719Z,10.67
2023-02-17T04:41:32.714Z,10.76
2023-02-17T04:42:32.703Z,10.71
2023-02-17T04:43:32.682Z,10.72
2023-02-17T04:44:32.674Z,10.68
2023-02-17T04:45:33.664Z,10.71
2023-02-17T04:46:32.734Z,10.64
2023-02-17T04:47:32.657Z,10.67
2023-02-17T04:48:32.635Z,10.71
2023-02-17T04:49:32.638Z,10.68
2023-02-17T04:50:32.606Z,10.69
2023-02-17T04:51:32.608Z,10.68
2023-02-17T04:52:32.585Z,10.68
2023-02-17T04:53:32.582Z,10.68
2023-02-17T04:54:32.563Z,10.68
2023-02-17T04:55:32.550Z,10.69
2023-02-17T04:56:32.575Z,10.68
2023-02-17T04:57:32.526Z,10.68
2023-02-17T04:58:32.523Z,10.69
2023-02-17T04:59:32.536Z,10.74
2023-02-17T05:00:32.497Z,10.74
2023-02-17T05:01:32.548Z,10.69
2023-02-17T05:02:32.491Z,10.68
2023-02-17T05:03:32.493Z,10.64
2023-02-17T05:04:32.465Z,10.75
2023-02-17T05:05:32.468Z,10.63
2023-02-17T05:06:32.429Z,10.64
2023-02-17T05:07:32.427Z,10.76
2023-02-17T05:08:32.404Z,10.69
2023-02-17T05:09:32.403Z,10.64
2023-02-17T05:10:32.385Z,10.75
2023-02-17T05:11:32.383Z,10.74
2023-02-17T05:12:32.409Z,10.59
2023-02-17T05:13:32.365Z,10.64
2023-02-17T05:14:32.371Z,10.69
2023-02-17T05:15:34.777Z,10.61
2023-02-17T05:16:32.332Z,10.61
2023-02-17T05:17:32.312Z,10.67
2023-02-17T05:18:32.293Z,10.67
2023-02-17T05:19:32.290Z,10.64
2023-02-17T05:20:32.283Z,10.63
2023-02-17T05:21:32.286Z,10.64
2023-02-17T05:22:32.261Z,10.68
2023-02-17T05:23:32.248Z,10.63
2023-02-17T05:24:32.228Z,10.67
2023-02-17T05:25:32.234Z,10.72
2023-02-17T05:26:32.217Z,10.64
2023-02-17T05:27:32.206Z,10.60
2023-02-17T05:28:32.198Z,10.63
2023-02-17T05:29:32.177Z,10.69
2023-02-17T05:30:32.200Z,10.68
2023-02-17T05:31:32.227Z,10.60
2023-02-17T05:32:32.140Z,10.68
2023-02-17T05:33:32.131Z,10.68
2023-02-17T05:34:32.131Z,10.69
2023-02-17T05:35:34.749Z,10.71
2023-02-17T05:36:32.103Z,10.64
2023-02-17T05:37:32.119Z,10.64
2023-02-17T05:38:32.078Z,10.61
2023-02-17T05:39:32.074Z,10.71
2023-02-17T05:40:32.086Z,10.63
2023-02-17T05:41:32.073Z,10.71
2023-02-17T05:42:32.030Z,10.61
2023-02-17T05:43:32.020Z,10.61
2023-02-17T05:44:32.005Z,10.61
2023-02-17T05:45:32.006Z,10.64
2023-02-17T05:46:32.011Z,10.60
2023-02-17T05:47:31.993Z,10.64
2023-02-17T05:48:31.978Z,10.67
2023-02-17T05:49:31.961Z,10.67
2023-02-17T05:50:31.956Z,10.61
2023-02-17T05:51:31.934Z,10.59
2023-02-17T05:52:31.940Z,10.61
2023-02-17T05:53:31.933Z,10.68
2023-02-17T05:54:31.900Z,10.64
2023-02-17T05:55:31.924Z,10.68
2023-02-17T05:56:31.877Z,10.67
2023-02-17T05:57:31.869Z,10.61
2023-02-17T05:58:31.871Z,10.64
2023-02-17T05:59:31.849Z,10.67
2023-02-17T06:00:31.840Z,10.61
2023-02-17T06:01:31.835Z,10.68
2023-02-17T06:02:31.814Z,10.68
2023-02-17T06:03:31.826Z,10.75
2023-02-17T06:04:38.961Z,10.64
2023-02-17T06:05:31.783Z,10.76
2023-02-17T06:06:31.768Z,10.72
2023-02-17T06:07:31.790Z,10.68
2023-02-17T06:08:31.784Z,10.72
2023-02-17T06:09:31.785Z,10.74
2023-02-17T06:10:31.765Z,10.69
2023-02-17T06:11:31.729Z,10.60
2023-02-17T06:12:31.709Z,10.60
2023-02-17T06:13:31.709Z,10.61
2023-02-17T06:14:31.712Z,10.60
2023-02-17T06:15:31.709Z,10.63
2023-02-17T06:16:31.735Z,10.61
2023-02-17T06:17:31.665Z,10.61
2023-02-17T06:18:31.632Z,10.61
2023-02-17T06:19:31.646Z,10.67
2023-02-17T06:20:31.618Z,10.67
2023-02-17T06:21:31.609Z,10.64
2023-02-17T06:22:31.619Z,10.68
2023-02-17T06:23:31.598Z,10.72
2023-02-17T06:24:31.570Z,10.60
2023-02-17T06:25:31.583Z,10.63
2023-02-17T06:26:31.548Z,10.67
2023-02-17T06:27:31.543Z,10.64
2023-02-17T06:28:32.429Z,10.61
2023-02-17T06:29:31.539Z,10.60
2023-02-17T06:30:31.661Z,10.59
2023-02-17T06:31:31.573Z,10.59
2023-02-17T06:32:31.480Z,10.57
2023-02-17T06:33:31.479Z,10.59
2023-02-17T06:34:31.482Z,10.44
2023-02-17T06:35:31.448Z,10.49
2023-02-17T06:36:31.435Z,10.49
2023-02-17T06:37:31.429Z,10.53
2023-02-17T06:38:31.435Z,10.51
2023-02-17T06:39:31.412Z,10.54
2023-02-17T06:40:31.389Z,10.46
2023-02-17T06:41:31.401Z,10.53
2023-02-17T06:42:31.368Z,10.48
2023-02-17T06:43:31.360Z,10.40
2023-02-17T06:44:31.371Z,10.38
2023-02-17T06:45:31.412Z,10.42
2023-02-17T06:46:31.331Z,10.37
2023-02-17T06:47:31.315Z,10.38
2023-02-17T06:48:31.298Z,10.37
2023-02-17T06:49:31.298Z,10.33
2023-02-17T06:50:31.284Z,10.38
2023-02-17T06:51:31.273Z,10.30
2023-02-17T06:52:31.262Z,10.28
2023-02-17T06:53:31.248Z,10.37
2023-02-17T06:54:31.241Z,10.23
2023-02-17T06:55:31.232Z,10.34
2023-02-17T06:56:31.217Z,10.34
2023-02-17T06:57:31.254Z,10.35
2023-02-17T06:58:31.192Z,10.38
2023-02-17T06:59:31.178Z,10.34
2023-02-17T07:00:31.235Z,10.30
2023-02-17T07:01:31.157Z,10.30
2023-02-17T07:02:31.239Z,10.30
2023-02-17T07:03:31.152Z,10.31
2023-02-17T07:04:31.123Z,10.31
2023-02-17T07:05:31.114Z,10.34
2023-02-17T07:06:31.112Z,10.34
2023-02-17T07:07:31.100Z,10.33
2023-02-17T07:08:32.857Z,10.40
2023-02-17T07:09:31.096Z,10.38
2023-02-17T07:10:31.077Z,10.34
2023-02-17T07:11:31.072Z,10.31
2023-02-17T07:12:31.062Z,10.38
2023-02-17T07:13:31.053Z,10.35
2023-02-17T07:14:31.026Z,10.37
2023-02-17T07:15:31.028Z,10.40
2023-02-17T07:16:31.031Z,10.37
2023-02-17T07:17:30.985Z,10.42
2023-02-17T07:18:30.978Z,10.40
2023-02-17T07:19:30.982Z,10.41
2023-02-17T07:20:30.966Z,10.42
2023-02-17T07:21:30.943Z,10.37
2023-02-17T07:22:30.926Z,10.37
2023-02-17T07:23:30.928Z,10.41
2023-02-17T07:24:30.908Z,10.44
2023-02-17T07:25:30.918Z,10.34
2023-02-17T07:26:30.920Z,10.37
2023-02-17T07:27:30.877Z,10.38
2023-02-17T07:28:30.864Z,10.37
2023-02-17T07:29:30.874Z,10.35
2023-02-17T07:30:31.029Z,10.42
2023-02-17T07:31:30.973Z,10.40
2023-02-17T07:32:30.860Z,10.37
2023-02-17T07:33:30.827Z,10.35
2023-02-17T07:34:30.803Z,10.40
2023-02-17T07:35:30.818Z,10.38
2023-02-17T07:36:30.796Z,10.44
2023-02-17T07:37:30.768Z,10.41
2023-02-17T07:38:32.632Z,10.37
2023-02-17T07:39:30.745Z,10.40
2023-02-17T07:40:30.730Z,10.44
2023-02-17T07:41:30.729Z,10.54
2023-02-17T07:42:30.706Z,10.48
2023-02-17T07:43:30.708Z,10.51
2023-02-17T07:44:30.695Z,10.57
2023-02-17T07:45:30.740Z,10.51
2023-02-17T07:46:30.695Z,10.60
2023-02-17T07:47:30.651Z,10.60
2023-02-17T07:48:30.644Z,10.59
2023-02-17T07:49:30.646Z,10.53
2023-02-17T07:50:30.624Z,10.60
2023-02-17T07:51:30.604Z,10.61
2023-02-17T07:52:30.601Z,10.56
2023-02-17T07:53:30.582Z,10.63
2023-02-17T07:54:30.571Z,10.60
2023-02-17T07:55:30.591Z,10.63
2023-02-17T07:56:30.568Z,10.63
2023-02-17T07:57:30.542Z,10.60
2023-02-17T07:58:30.534Z,10.63
2023-02-17T07:59:30.515Z,10.68
2023-02-17T08:00:30.520Z,10.74
2023-02-17T08:01:30.519Z,10.64
2023-02-17T08:02:30.506Z,10.71
2023-02-17T08:03:30.472Z,10.71
2023-02-17T08:04:30.476Z,10.67
2023-02-17T08:05:30.462Z,10.78
2023-02-17T08:06:30.470Z,10.69
2023-02-17T08:07:30.441Z,10.69
2023-02-17T08:08:30.428Z,10.69
2023-02-17T08:09:30.426Z,10.71
2023-02-17T08:10:30.393Z,10.72
2023-02-17T08:11:30.403Z,10.68
2023-02-17T08:12:30.371Z,10.72
2023-02-17T08:13:30.363Z,10.69
2023-02-17T08:14:30.371Z,10.74
2023-02-17T08:15:30.348Z,10.78
2023-02-17T08:17:51.174Z,10.72
2023-02-17T08:18:50.837Z,10.74
2023-02-17T08:19:50.171Z,10.84
2023-02-17T08:20:50.177Z,10.78
2023-02-17T08:21:50.156Z,10.72
2023-02-17T08:22:50.143Z,10.84
2023-02-17T08:23:50.153Z,10.81
2023-02-17T08:24:50.146Z,10.81
2023-02-17T08:25:50.095Z,10.87
2023-02-17T08:26:50.079Z,10.86
2023-02-17T08:27:50.091Z,10.81
2023-02-17T08:28:50.060Z,10.84
2023-02-17T08:29:50.049Z,10.82
2023-02-17T08:30:50.230Z,10.86
2023-02-17T08:31:50.090Z,10.79
2023-02-17T08:32:57.743Z,10.81
2023-02-17T08:33:50.016Z,10.84
2023-02-17T08:34:50.011Z,10.79
2023-02-17T08:35:49.985Z,10.78
2023-02-17T08:36:49.990Z,10.79
2023-02-17T08:37:50.006Z,10.81
2023-02-17T08:38:49.962Z,10.76
2023-02-17T08:39:49.949Z,10.82
2023-02-17T08:40:49.940Z,10.78
2023-02-17T08:41:49.915Z,10.79
2023-02-17T08:42:49.925Z,10.82
2023-02-17T08:43:49.894Z,10.86
2023-02-17T08:44:49.891Z,10.84
2023-02-17T08:45:49.916Z,10.90
2023-02-17T08:46:49.872Z,10.84
2023-02-17T08:47:49.899Z,10.89
2023-02-17T08:48:49.870Z,10.92
2023-02-17T08:49:49.837Z,10.90
2023-02-17T08:50:49.830Z,10.99
2023-02-17T08:51:49.812Z,10.87
2023-02-17T08:52:49.803Z,10.99
2023-02-17T08:53:49.785Z,10.94
2023-02-17T08:54:51.626Z,10.99
2023-02-17T08:55:50.052Z,10.94
2023-02-17T08:56:49.839Z,10.92
2023-02-17T08:57:49.852Z,10.90
2023-02-17T08:58:49.735Z,10.92
2023-02-17T08:59:49.740Z,10.90
2023-02-17T09:00:49.707Z,10.97
2023-02-17T09:01:49.816Z,11.05
2023-02-17T09:02:49.697Z,11.07
2023-02-17T09:03:49.692Z,11.04
2023-02-17T09:04:49.805Z,10.97
2023-02-17T09:05:50.613Z,11.04
2023-02-17T09:06:49.659Z,10.99
2023-02-17T09:07:49.690Z,10.96
2023-02-17T09:08:49.630Z,11.11
2023-02-17T09:09:49.615Z,11.07
2023-02-17T09:10:49.616Z,11.07
2023-02-17T09:11:49.656Z,11.08
2023-02-17T09:12:49.574Z,11.14
2023-02-17T09:13:49.576Z,11.12
2023-02-17T09:14:49.562Z,11.12
2023-02-17T09:15:49.642Z,11.17
2023-02-17T09:16:49.600Z,11.19
2023-02-17T09:17:49.513Z,11.18
2023-02-17T09:18:49.525Z,11.22
2023-02-17T09:19:49.489Z,11.23
2023-02-17T09:20:49.495Z,11.19
2023-02-17T09:21:49.469Z,11.23
2023-02-17T09:22:51.419Z,11.27
2023-02-17T09:23:49.493Z,11.27
2023-02-17T09:24:49.442Z,11.41
2023-02-17T09:25:49.436Z,11.41
2023-02-17T09:26:49.416Z,11.43
2023-02-17T09:27:49.471Z,11.41
2023-02-17T09:28:49.459Z,11.40
2023-02-17T09:29:49.406Z,11.37
2023-02-17T09:30:49.549Z,11.35
2023-02-17T09:31:49.545Z,11.51
2023-02-17T09:32:49.351Z,11.45
2023-02-17T09:33:49.366Z,11.45
2023-02-17T09:34:49.382Z,11.43
2023-02-17T09:35:49.408Z,11.41
2023-02-17T09:36:49.327Z,11.48
2023-02-17T09:37:49.317Z,11.50
2023-02-17T09:38:49.357Z,11.41
2023-02-17T09:39:49.378Z,11.50
2023-02-17T09:40:49.266Z,11.43
2023-02-17T09:41:49.265Z,11.51
2023-02-17T09:42:49.293Z,11.44
2023-02-17T09:43:49.251Z,11.50
2023-02-17T09:44:49.216Z,11.54
2023-02-17T09:45:49.200Z,11.51
2023-02-17T09:47:00.853Z,11.51
2023-02-17T09:47:50.261Z,11.48
2023-02-17T09:48:49.169Z,11.51
2023-02-17T09:49:49.194Z,11.59
2023-02-17T09:50:49.197Z,11.50
2023-02-17T09:51:49.183Z,11.52
2023-02-17T09:52:49.234Z,11.62
2023-02-17T09:53:49.182Z,11.59
2023-02-17T09:54:49.110Z,11.57
2023-02-17T09:55:49.121Z,11.63
2023-02-17T09:56:49.128Z,11.62
2023-02-17T09:57:49.112Z,11.63
2023-02-17T09:58:49.052Z,11.63
2023-02-17T09:59:49.090Z,11.65
2023-02-17T10:00:49.044Z,11.55
2023-02-17T10:01:49.103Z,11.62
2023-02-17T10:02:49.093Z,11.60
2023-02-17T10:03:49.131Z,11.66
2023-02-17T10:04:49.025Z,11.66
2023-02-17T10:05:49.029Z,11.69
2023-02-17T10:06:49.047Z,11.72
2023-02-17T10:07:48.954Z,11.68
2023-02-17T10:08:49.014Z,11.68
2023-02-17T10:09:48.994Z,11.72
2023-02-17T10:10:48.923Z,11.73
2023-02-17T10:11:48.904Z,11.72
2023-02-17T10:12:48.893Z,11.70
2023-02-17T10:13:48.906Z,11.70
2023-02-17T10:14:48.870Z,11.78
2023-02-17T10:15:48.919Z,11.83
2023-02-17T10:16:48.866Z,11.83
2023-02-17T10:17:48.842Z,11.87
2023-02-17T10:18:48.824Z,11.88
2023-02-17T10:19:48.874Z,11.99
2023-02-17T10:20:48.813Z,12.02
2023-02-17T10:21:48.793Z,12.02
2023-02-17T10:22:48.825Z,12.02
2023-02-17T10:23:48.865Z,12.07
2023-02-17T10:24:48.790Z,12.04
2023-02-17T10:25:48.839Z,12.03
2023-02-17T10:26:48.741Z,12.07
2023-02-17T10:27:48.802Z,12.02
2023-02-17T10:28:48.713Z,12.03
2023-02-17T10:29:48.707Z,12.06
2023-02-17T10:30:48.935Z,12.03
2023-02-17T10:31:48.798Z,12.03
2023-02-17T10:32:48.780Z,12.07
2023-02-17T10:33:48.653Z,12.09
2023-02-17T10:34:48.637Z,11.99
2023-02-17T10:35:48.636Z,12.06
2023-02-17T10:36:48.651Z,12.09
2023-02-17T10:37:48.659Z,12.07
2023-02-17T10:38:48.592Z,12.09
2023-02-17T10:39:48.621Z,12.06
2023-02-17T10:40:48.586Z,12.09
2023-02-17T10:41:48.570Z,12.04
2023-02-17T10:42:48.557Z,12.06
2023-02-17T10:43:48.542Z,12.09
2023-02-17T10:44:48.633Z,12.18
2023-02-17T10:45:48.524Z,12.15
2023-02-17T10:46:48.624Z,12.24
2023-02-17T10:47:48.510Z,12.18
2023-02-17T10:48:48.499Z,12.18
2023-02-17T10:49:48.485Z,12.27
2023-02-17T10:50:48.456Z,12.28
2023-02-17T10:51:48.448Z,12.20
2023-02-17T10:52:48.452Z,12.27
2023-02-17T10:53:48.434Z,12.25
2023-02-17T10:54:48.411Z,12.22
2023-02-17T10:55:48.421Z,12.25
2023-02-17T10:56:48.421Z,12.24
2023-02-17T10:57:48.385Z,12.27
2023-02-17T10:58:48.372Z,12.27
2023-02-17T10:59:48.360Z,12.29
2023-02-17T11:00:48.366Z,12.32
2023-02-17T11:01:48.346Z,12.27
2023-02-17T11:02:48.335Z,12.25
2023-02-17T11:03:48.389Z,12.35
2023-02-17T11:04:48.318Z,12.25
2023-02-17T11:05:48.292Z,12.28
2023-02-17T11:06:48.281Z,12.29
2023-02-17T11:07:48.270Z,12.29
2023-02-17T11:08:48.264Z,12.28
2023-02-17T11:09:48.245Z,12.32
2023-02-17T11:10:48.246Z,12.28
2023-02-17T11:11:48.224Z,12.32
2023-02-17T11:12:48.232Z,12.31
2023-02-17T11:13:48.218Z,12.31
2023-02-17T11:14:48.210Z,12.31
2023-02-17T11:15:48.188Z,12.35
2023-02-17T11:16:48.167Z,12.36
2023-02-17T11:17:48.162Z,12.36
2023-02-17T11:18:48.143Z,12.42
2023-02-17T11:19:48.156Z,12.37
2023-02-17T11:20:48.138Z,12.46
2023-02-17T11:21:48.112Z,12.42
2023-02-17T11:22:48.100Z,12.42
2023-02-17T11:23:48.094Z,12.46
2023-02-17T11:24:48.083Z,12.42
2023-02-17T11:25:48.080Z,12.49
2023-02-17T11:26:48.051Z,12.45
2023-02-17T11:27:48.064Z,12.46
2023-02-17T11:28:48.048Z,12.49
2023-02-17T11:29:48.045Z,12.46
2023-02-17T11:30:48.007Z,12.49
2023-02-17T11:31:48.046Z,12.54
2023-02-17T11:32:47.985Z,12.42
2023-02-17T11:33:47.984Z,12.53
2023-02-17T11:34:47.970Z,12.53
2023-02-17T11:35:47.963Z,12.47
2023-02-17T11:36:47.943Z,12.45
2023-02-17T11:37:47.967Z,12.45
2023-02-17T11:38:47.915Z,12.45
2023-02-17T11:39:47.912Z,12.53
2023-02-17T11:40:47.895Z,12.43
2023-02-17T11:41:47.889Z,12.45
2023-02-17T11:42:47.897Z,12.45
2023-02-17T11:43:47.868Z,12.36
2023-02-17T11:44:47.874Z,12.42
2023-02-17T11:45:47.922Z,12.36
2023-02-17T11:46:47.835Z,12.36
2023-02-17T11:47:47.830Z,12.36
2023-02-17T11:48:47.828Z,12.39
2023-02-17T11:49:47.795Z,12.37
2023-02-17T11:50:47.787Z,12.37
2023-02-17T11:51:47.775Z,12.39
2023-02-17T11:52:47.761Z,12.37
2023-02-17T11:53:47.766Z,12.32
2023-02-17T11:54:47.738Z,12.36
2023-02-17T11:55:47.743Z,12.31
2023-02-17T11:56:47.715Z,12.35
2023-02-17T11:57:47.707Z,12.36
2023-02-17T11:58:47.712Z,12.32
2023-02-17T11:59:47.680Z,12.35
2023-02-17T12:00:47.693Z,12.39
2023-02-17T12:01:47.669Z,12.37
2023-02-17T12:02:47.713Z,12.32
2023-02-17T12:03:47.651Z,12.47
2023-02-17T12:04:47.677Z,12.39
2023-02-17T12:05:47.609Z,12.39
2023-02-17T12:06:47.614Z,12.40
2023-02-17T12:07:47.599Z,12.40
2023-02-17T12:08:47.806Z,12.37
2023-02-17T12:09:47.572Z,12.36
2023-02-17T12:10:47.556Z,12.31
2023-02-17T12:11:47.539Z,12.39
2023-02-17T12:12:47.618Z,12.39
2023-02-17T12:13:47.519Z,12.28
2023-02-17T12:14:47.522Z,12.37
2023-02-17T12:15:47.530Z,12.31
2023-02-17T12:16:47.543Z,12.32
2023-02-17T12:17:47.475Z,12.35
2023-02-17T12:18:47.468Z,12.32
2023-02-17T12:19:47.468Z,12.32
2023-02-17T12:20:47.456Z,12.32
2023-02-17T12:21:47.457Z,12.36
2023-02-17T12:22:47.428Z,12.29
2023-02-17T12:23:47.405Z,12.27
2023-02-17T12:24:47.392Z,12.31
2023-02-17T12:25:47.381Z,12.27
2023-02-17T12:26:47.377Z,12.29
2023-02-17T12:27:47.374Z,12.21
2023-02-17T12:28:47.356Z,12.25
2023-02-17T12:29:47.334Z,12.25
2023-02-17T12:30:47.491Z,12.28
2023-02-17T12:31:47.466Z,12.27
2023-02-17T12:32:47.345Z,12.29
2023-02-17T12:33:47.296Z,12.31
2023-02-17T12:34:47.302Z,12.29
2023-02-17T12:35:47.268Z,12.31
2023-02-17T12:36:47.263Z,12.32
2023-02-17T12:37:48.500Z,12.31
2023-02-17T12:38:47.237Z,12.28
2023-02-17T12:39:47.226Z,12.27
2023-02-17T12:40:47.221Z,12.36
2023-02-17T12:41:47.200Z,12.28
2023-02-17T12:42:47.202Z,12.28
2023-02-17T12:43:49.244Z,12.32
2023-02-17T12:44:47.179Z,12.35
2023-02-17T12:45:47.183Z,12.36
2023-02-17T12:46:47.164Z,12.27
2023-02-17T12:47:47.139Z,12.28
2023-02-17T12:48:47.148Z,12.27
2023-02-17T12:49:47.116Z,12.28
2023-02-17T12:50:47.102Z,12.28
2023-02-17T12:51:47.100Z,12.35
2023-02-17T12:52:47.159Z,12.21
2023-02-17T12:53:47.069Z,12.27